createdAt,value
2022-10-30T00:01:19.655Z,99.90
2022-10-30T00:03:57.816Z,99.90
2022-10-30T00:06:25.156Z,99.90
2022-10-30T00:08:52.542Z,99.90
2022-10-30T00:11:19.567Z,99.90
2022-10-30T00:13:46.799Z,99.90
2022-10-30T00:16:16.458Z,99.90
2022-10-30T00:18:43.538Z,99.90
2022-10-30T00:21:15.560Z,99.90
2022-10-30T00:23:46.960Z,99.90
2022-10-30T00:26:17.193Z,99.90
2022-10-30T00:28:50.536Z,99.90
2022-10-30T00:31:17.851Z,99.90
2022-10-30T00:33:48.631Z,99.90
2022-10-30T00:36:18.362Z,99.90
2022-10-30T00:38:45.713Z,99.90
2022-10-30T00:41:17.900Z,99.90
2022-10-30T00:43:45.801Z,99.90
2022-10-30T00:46:34.863Z,99.90
2022-10-30T00:49:20.534Z,99.90
2022-10-30T00:51:54.693Z,99.90
2022-10-30T00:54:23.480Z,99.90
2022-10-30T00:56:51.753Z,99.90
2022-10-30T00:59:29.793Z,99.90
2022-10-30T01:01:58.106Z,99.90
2022-10-30T01:04:29.096Z,99.90
2022-10-30T01:07:06.662Z,99.90
2022-10-30T01:09:34.153Z,99.90
2022-10-30T01:12:01.854Z,99.90
2022-10-30T01:14:33.440Z,99.90
2022-10-30T01:17:18.545Z,99.90
2022-10-30T01:19:53.280Z,99.90
2022-10-30T01:23:04.713Z,99.90
2022-10-30T01:25:53.357Z,99.90
2022-10-30T01:28:26.712Z,99.90
2022-10-30T01:31:24.382Z,99.90
2022-10-30T01:34:19.252Z,99.90
2022-10-30T01:36:56.682Z,99.90
2022-10-30T01:39:34.626Z,99.90
2022-10-30T01:42:29.219Z,99.90
2022-10-30T01:44:56.763Z,99.90
2022-10-30T01:48:14.809Z,99.90
2022-10-30T01:50:55.241Z,99.90
2022-10-30T01:53:25.634Z,99.90
2022-10-30T01:56:02.371Z,99.90
2022-10-30T01:58:47.719Z,99.90
2022-10-30T02:01:18.508Z,99.90
2022-10-30T02:03:46.783Z,99.90
2022-10-30T02:06:13.906Z,99.90
2022-10-30T02:08:41.320Z,99.90
2022-10-30T02:11:10.569Z,99.90
2022-10-30T02:13:38.705Z,99.90
2022-10-30T02:16:06.396Z,99.90
2022-10-30T02:18:33.758Z,99.90
2022-10-30T02:21:01.419Z,99.90
2022-10-30T02:23:31.044Z,99.90
2022-10-30T02:25:58.329Z,99.90
2022-10-30T02:28:25.573Z,99.90
2022-10-30T02:30:53.114Z,99.90
2022-10-30T02:33:20.445Z,99.90
2022-10-30T02:35:47.743Z,99.90
2022-10-30T02:38:14.823Z,99.90
2022-10-30T02:40:42.429Z,99.90
2022-10-30T02:43:12.520Z,99.90
2022-10-30T02:45:39.677Z,99.90
2022-10-30T02:48:07.168Z,99.90
2022-10-30T02:50:36.745Z,99.90
2022-10-30T02:53:06.551Z,99.90
2022-10-30T02:55:34.054Z,99.90
2022-10-30T02:58:01.667Z,99.90
2022-10-30T03:03:23.061Z,99.90
2022-10-30T03:05:53.885Z,99.90
2022-10-30T03:08:21.091Z,99.90
2022-10-30T03:10:48.081Z,99.90
2022-10-30T03:13:15.420Z,99.90
2022-10-30T03:15:42.986Z,99.90
2022-10-30T03:18:10.076Z,99.90
2022-10-30T03:20:37.413Z,99.90
2022-10-30T03:23:04.706Z,99.90
2022-10-30T03:25:34.542Z,99.90
2022-10-30T03:28:03.969Z,99.90
2022-10-30T03:30:34.282Z,99.90
2022-10-30T03:33:01.849Z,99.90
2022-10-30T03:35:29.084Z,99.90
2022-10-30T03:37:56.232Z,99.90
2022-10-30T03:40:28.051Z,99.90
2022-10-30T03:42:55.447Z,99.90
2022-10-30T03:45:25.013Z,99.90
2022-10-30T03:47:52.226Z,99.90
2022-10-30T03:50:19.374Z,99.90
2022-10-30T03:52:46.665Z,99.90
2022-10-30T03:55:14.370Z,99.90
2022-10-30T03:57:41.774Z,99.90
2022-10-30T04:00:09.430Z,99.90
2022-10-30T04:02:36.707Z,99.90
2022-10-30T04:05:06.235Z,99.90
2022-10-30T04:07:33.594Z,99.90
2022-10-30T04:10:03.617Z,99.90
2022-10-30T04:12:30.701Z,99.90
2022-10-30T04:15:00.648Z,99.90
2022-10-30T04:17:27.754Z,99.90
2022-10-30T04:19:54.888Z,99.90
2022-10-30T04:22:22.492Z,99.90
2022-10-30T04:24:49.670Z,99.90
2022-10-30T04:27:17.207Z,99.90
2022-10-30T04:29:44.626Z,99.90
2022-10-30T04:32:11.899Z,99.90
2022-10-30T04:34:43.807Z,99.90
2022-10-30T04:37:13.669Z,99.90
2022-10-30T04:39:43.815Z,99.90
2022-10-30T04:42:16.062Z,99.90
2022-10-30T04:44:43.150Z,99.90
2022-10-30T04:47:10.173Z,99.90
2022-10-30T04:49:37.795Z,99.90
2022-10-30T04:52:04.949Z,99.90
2022-10-30T04:54:34.490Z,99.90
2022-10-30T04:57:04.380Z,99.90
2022-10-30T04:59:31.597Z,99.90
2022-10-30T05:01:58.837Z,99.90
2022-10-30T05:04:26.342Z,99.90
2022-10-30T05:06:53.521Z,99.90
2022-10-30T05:09:20.716Z,99.90
2022-10-30T05:11:48.034Z,99.90
2022-10-30T05:14:15.170Z,99.90
2022-10-30T05:16:42.575Z,99.90
2022-10-30T05:19:10.154Z,99.90
2022-10-30T05:21:37.796Z,99.90
2022-10-30T05:24:08.008Z,99.90
2022-10-30T05:26:37.854Z,99.90
2022-10-30T05:29:05.113Z,99.90
2022-10-30T05:31:32.272Z,99.90
2022-10-30T05:34:01.783Z,99.90
2022-10-30T05:36:31.604Z,99.90
2022-10-30T05:39:01.466Z,99.90
2022-10-30T05:41:29.826Z,99.90
2022-10-30T05:43:57.206Z,99.90
2022-10-30T05:46:24.914Z,99.90
2022-10-30T05:48:51.935Z,99.90
2022-10-30T05:51:19.293Z,99.90
2022-10-30T05:53:48.597Z,99.90
2022-10-30T05:56:15.776Z,99.90
2022-10-30T05:58:48.130Z,99.90
2022-10-30T06:01:15.658Z,99.90
2022-10-30T06:03:43.008Z,99.90
2022-10-30T06:06:12.804Z,99.90
2022-10-30T06:08:40.560Z,99.90
2022-10-30T06:11:07.570Z,99.90
2022-10-30T06:13:34.756Z,99.90
2022-10-30T06:16:04.549Z,99.90
2022-10-30T06:18:31.566Z,99.90
2022-10-30T06:21:01.547Z,99.90
2022-10-30T06:23:31.180Z,99.90
2022-10-30T06:25:58.162Z,99.90
2022-10-30T06:28:28.269Z,99.90
2022-10-30T06:30:55.499Z,99.90
2022-10-30T06:33:24.736Z,99.90
2022-10-30T06:35:52.747Z,99.90
2022-10-30T06:38:20.815Z,99.90
2022-10-30T06:40:48.962Z,99.90
2022-10-30T06:43:16.387Z,99.90
2022-10-30T06:45:43.627Z,99.90
2022-10-30T06:48:10.663Z,99.90
2022-10-30T06:50:40.287Z,98.00
2022-10-30T06:53:07.601Z,95.10
2022-10-30T06:55:37.214Z,93.50
2022-10-30T06:58:04.677Z,93.00
2022-10-30T07:00:34.151Z,92.50
2022-10-30T07:03:02.717Z,91.70
2022-10-30T07:05:30.607Z,90.60
2022-10-30T07:07:58.369Z,86.70
2022-10-30T07:10:27.750Z,80.20
2022-10-30T07:12:58.431Z,75.30
2022-10-30T07:15:26.898Z,71.70
2022-10-30T07:17:55.011Z,69.00
2022-10-30T07:20:24.297Z,66.80
2022-10-30T07:22:51.779Z,64.70
2022-10-30T07:25:19.129Z,61.80
2022-10-30T07:27:51.618Z,60.30
2022-10-30T07:30:21.525Z,59.30
2022-10-30T07:32:59.976Z,58.90
2022-10-30T07:35:28.593Z,60.00
2022-10-30T07:38:11.321Z,60.30
2022-10-30T07:40:40.608Z,59.50
2022-10-30T07:43:09.568Z,60.10
2022-10-30T07:45:36.690Z,62.50
2022-10-30T07:48:06.191Z,64.50
2022-10-30T07:50:36.068Z,67.20
2022-10-30T07:53:03.206Z,67.60
2022-10-30T07:55:30.685Z,65.90
2022-10-30T07:57:58.577Z,66.00
2022-10-30T08:00:28.043Z,66.20
2022-10-30T08:03:01.465Z,65.70
2022-10-30T08:05:31.989Z,66.40
2022-10-30T08:08:02.063Z,67.30
2022-10-30T08:10:29.378Z,69.20
2022-10-30T08:12:59.332Z,71.30
2022-10-30T08:15:26.907Z,72.80
2022-10-30T08:17:56.995Z,74.50
2022-10-30T08:20:25.005Z,75.90
2022-10-30T08:22:53.797Z,76.90
2022-10-30T08:25:25.460Z,77.80
2022-10-30T08:27:57.351Z,73.00
2022-10-30T08:30:27.001Z,64.60
2022-10-30T08:32:59.450Z,58.60
2022-10-30T08:35:27.197Z,55.70
2022-10-30T08:37:58.443Z,51.50
2022-10-30T08:40:27.130Z,49.00
2022-10-30T08:42:56.051Z,47.10
2022-10-30T08:45:29.739Z,46.00
2022-10-30T08:48:02.897Z,45.60
2022-10-30T08:50:32.425Z,44.30
2022-10-30T08:53:08.658Z,44.10
2022-10-30T08:55:38.998Z,43.60
2022-10-30T08:58:06.405Z,43.60
2022-10-30T09:00:33.463Z,43.90
2022-10-30T09:03:01.545Z,45.00
2022-10-30T09:05:30.438Z,46.10
2022-10-30T09:07:58.665Z,47.80
2022-10-30T09:10:27.139Z,50.10
2022-10-30T09:12:58.439Z,50.10
2022-10-30T09:15:26.649Z,49.60
2022-10-30T09:18:03.157Z,49.90
2022-10-30T09:20:31.580Z,49.90
2022-10-30T09:23:01.636Z,50.00
2022-10-30T09:25:31.387Z,49.30
2022-10-30T09:28:03.547Z,49.20
2022-10-30T09:30:30.657Z,50.40
2022-10-30T09:33:00.034Z,50.90
2022-10-30T09:35:30.269Z,52.00
2022-10-30T09:37:59.881Z,50.60
2022-10-30T09:40:49.216Z,49.10
2022-10-30T09:43:45.860Z,47.70
2022-10-30T09:46:39.155Z,46.80
2022-10-30T09:49:12.436Z,46.40
2022-10-30T09:51:49.097Z,46.40
2022-10-30T09:54:48.688Z,46.50
2022-10-30T09:57:24.883Z,46.40
2022-10-30T10:00:03.928Z,46.10
2022-10-30T10:02:52.283Z,46.30
2022-10-30T10:05:27.805Z,45.70
2022-10-30T10:08:06.772Z,46.00
2022-10-30T10:10:39.094Z,46.30
2022-10-30T10:13:10.526Z,45.60
2022-10-30T10:15:48.598Z,46.10
2022-10-30T10:18:25.612Z,46.30
2022-10-30T10:20:56.435Z,46.40
2022-10-30T10:23:32.449Z,45.70
2022-10-30T10:26:10.105Z,45.60
2022-10-30T10:29:00.635Z,45.70
2022-10-30T10:32:00.724Z,46.30
2022-10-30T10:34:36.070Z,46.10
2022-10-30T10:37:27.568Z,45.80
2022-10-30T10:40:27.083Z,45.60
2022-10-30T10:43:15.983Z,46.00
2022-10-30T10:46:05.055Z,45.90
2022-10-30T10:48:35.332Z,46.50
2022-10-30T10:51:10.736Z,47.10
2022-10-30T10:54:01.138Z,47.10
2022-10-30T10:56:33.467Z,48.30
2022-10-30T10:59:05.451Z,50.40
2022-10-30T11:01:41.095Z,50.90
2022-10-30T11:04:31.547Z,50.00
2022-10-30T11:07:02.435Z,49.50
2022-10-30T11:09:32.021Z,48.00
2022-10-30T11:11:59.255Z,47.40
2022-10-30T11:14:31.736Z,48.20
2022-10-30T11:17:15.921Z,49.90
2022-10-30T11:19:46.501Z,51.70
2022-10-30T11:22:39.242Z,53.50
2022-10-30T11:25:33.161Z,54.80
2022-10-30T11:28:03.124Z,56.40
2022-10-30T11:30:30.778Z,57.80
2022-10-30T11:32:59.904Z,58.90
2022-10-30T11:35:27.495Z,60.20
2022-10-30T11:38:19.261Z,61.50
2022-10-30T11:40:52.102Z,62.20
2022-10-30T11:43:22.882Z,63.50
2022-10-30T11:45:51.115Z,64.40
2022-10-30T11:48:27.469Z,65.40
2022-10-30T11:50:59.876Z,66.00
2022-10-30T11:53:49.111Z,66.50
2022-10-30T11:56:22.043Z,67.70
2022-10-30T11:58:58.982Z,68.60
2022-10-30T12:01:34.883Z,69.20
2022-10-30T12:04:34.930Z,69.20
2022-10-30T12:07:09.135Z,69.80
2022-10-30T12:09:47.219Z,70.00
2022-10-30T12:12:24.726Z,70.80
2022-10-30T12:14:53.228Z,70.90
2022-10-30T12:17:23.488Z,70.80
2022-10-30T12:19:53.035Z,70.90
2022-10-30T12:22:32.385Z,71.40
2022-10-30T12:25:26.744Z,71.60
2022-10-30T12:28:16.923Z,72.30
2022-10-30T12:30:51.233Z,73.10
2022-10-30T12:33:25.866Z,73.00
2022-10-30T12:35:57.319Z,73.60
2022-10-30T12:38:33.840Z,74.30
2022-10-30T12:41:06.155Z,74.70
2022-10-30T12:43:35.572Z,74.90
2022-10-30T12:46:23.279Z,75.40
2022-10-30T12:49:20.738Z,76.00
2022-10-30T12:52:26.292Z,76.70
2022-10-30T12:55:02.211Z,77.50
2022-10-30T12:57:37.156Z,77.90
2022-10-30T13:00:16.490Z,78.40
2022-10-30T13:03:04.203Z,79.00
2022-10-30T13:05:51.528Z,79.40
2022-10-30T13:08:38.041Z,79.90
2022-10-30T13:11:12.141Z,80.80
2022-10-30T13:13:47.497Z,81.00
2022-10-30T13:16:28.991Z,81.50
2022-10-30T13:18:58.220Z,81.90
2022-10-30T13:21:30.731Z,82.30
2022-10-30T13:24:23.664Z,82.50
2022-10-30T13:27:10.234Z,82.00
2022-10-30T13:29:54.297Z,81.00
2022-10-30T13:32:30.105Z,80.80
2022-10-30T13:35:35.389Z,80.50
2022-10-30T13:38:17.298Z,80.50
2022-10-30T13:40:46.594Z,80.40
2022-10-30T13:43:30.455Z,80.80
2022-10-30T13:46:33.090Z,81.50
2022-10-30T13:49:22.947Z,82.40
2022-10-30T13:52:16.941Z,83.10
2022-10-30T13:55:06.095Z,83.80
2022-10-30T13:57:36.478Z,84.40
2022-10-30T14:00:07.223Z,84.10
2022-10-30T14:03:01.055Z,84.10
2022-10-30T14:05:56.658Z,85.00
2022-10-30T14:08:36.392Z,84.60
2022-10-30T14:11:06.255Z,84.40
2022-10-30T14:13:51.735Z,84.50
2022-10-30T14:16:41.122Z,84.50
2022-10-30T14:19:11.126Z,84.70
2022-10-30T14:21:50.816Z,85.30
2022-10-30T14:24:24.574Z,85.40
2022-10-30T14:26:55.661Z,85.10
2022-10-30T14:29:35.127Z,85.50
2022-10-30T14:32:11.976Z,85.80
2022-10-30T14:34:51.538Z,86.30
2022-10-30T14:37:25.562Z,87.00
2022-10-30T14:39:54.677Z,87.40
2022-10-30T14:42:51.946Z,87.00
2022-10-30T14:45:51.687Z,87.20
2022-10-30T14:48:37.663Z,88.10
2022-10-30T14:51:28.089Z,88.20
2022-10-30T14:54:20.089Z,88.40
2022-10-30T14:56:49.740Z,88.80
2022-10-30T14:59:16.948Z,89.50
2022-10-30T15:01:53.101Z,90.10
2022-10-30T15:04:24.090Z,90.40
2022-10-30T15:07:01.979Z,90.60
2022-10-30T15:09:44.765Z,90.80
2022-10-30T15:13:09.077Z,90.90
2022-10-30T15:15:37.529Z,90.70
2022-10-30T15:18:29.408Z,90.80
2022-10-30T15:21:04.550Z,91.10
2022-10-30T15:23:34.453Z,91.00
2022-10-30T15:26:09.598Z,91.50
2022-10-30T15:28:38.995Z,91.80
2022-10-30T15:31:25.970Z,92.40
2022-10-30T15:33:54.728Z,92.80
2022-10-30T15:36:34.744Z,92.90
2022-10-30T15:39:11.014Z,93.30
2022-10-30T15:41:48.614Z,93.60
2022-10-30T15:44:22.525Z,94.10
2022-10-30T15:46:53.430Z,94.30
2022-10-30T15:49:32.491Z,94.70
2022-10-30T15:52:02.989Z,94.70
2022-10-30T15:54:31.296Z,95.10
2022-10-30T16:03:05.969Z,96.30
2022-10-30T16:05:35.289Z,97.00
2022-10-30T16:08:04.888Z,97.50
2022-10-30T16:10:36.473Z,98.10
2022-10-30T16:13:06.346Z,98.70
2022-10-30T16:15:38.601Z,99.20
2022-10-30T16:18:15.678Z,99.90
2022-10-30T16:20:45.882Z,99.90
2022-10-30T16:23:14.104Z,99.90
2022-10-30T16:25:46.730Z,99.90
2022-10-30T16:28:30.165Z,99.90
2022-10-30T16:31:05.533Z,99.90
2022-10-30T16:33:35.368Z,99.90
2022-10-30T16:36:04.288Z,99.90
2022-10-30T16:38:37.496Z,99.90
2022-10-30T16:41:09.407Z,99.90
2022-10-30T16:43:37.627Z,99.90
2022-10-30T16:46:16.779Z,99.90
2022-10-30T16:48:53.970Z,99.90
2022-10-30T16:51:21.441Z,99.90
2022-10-30T16:53:51.344Z,99.90
2022-10-30T16:56:25.536Z,99.90
2022-10-30T16:58:56.239Z,99.90
2022-10-30T17:01:29.398Z,99.90
2022-10-30T17:03:58.341Z,99.90
2022-10-30T17:06:28.919Z,99.90
2022-10-30T17:09:00.346Z,99.90
2022-10-30T17:11:44.717Z,99.90
2022-10-30T17:14:22.568Z,99.90
2022-10-30T17:16:57.990Z,99.90
2022-10-30T17:19:31.883Z,99.90
2022-10-30T17:22:01.949Z,99.90
2022-10-30T17:24:32.823Z,99.90
2022-10-30T17:27:05.849Z,99.90
2022-10-30T17:29:42.406Z,99.90
2022-10-30T17:32:19.080Z,99.90
2022-10-30T17:34:47.761Z,99.90
2022-10-30T17:37:14.997Z,99.90
2022-10-30T17:39:42.063Z,99.90
2022-10-30T17:42:13.636Z,99.90
2022-10-30T17:44:40.972Z,99.90
2022-10-30T17:47:16.645Z,99.90
2022-10-30T17:49:44.487Z,99.90
2022-10-30T17:52:16.366Z,99.90
2022-10-30T17:54:44.462Z,99.90
2022-10-30T17:57:13.237Z,99.90
2022-10-30T17:59:41.332Z,99.90
2022-10-30T18:02:16.588Z,99.90
2022-10-30T18:04:44.982Z,99.90
2022-10-30T18:07:13.529Z,99.90
2022-10-30T18:09:40.931Z,99.90
2022-10-30T18:12:13.405Z,99.90
2022-10-30T18:14:40.462Z,99.90
2022-10-30T18:17:07.501Z,99.90
2022-10-30T18:19:34.939Z,99.90
2022-10-30T18:22:02.721Z,99.90
2022-10-30T18:24:32.273Z,99.90
2022-10-30T18:26:59.923Z,99.90
2022-10-30T18:29:27.022Z,99.90
2022-10-30T18:31:54.296Z,99.90
2022-10-30T18:34:21.569Z,99.90
2022-10-30T18:36:49.326Z,99.90
2022-10-30T18:39:16.819Z,99.90
2022-10-30T18:41:46.121Z,99.90
2022-10-30T18:44:18.328Z,99.90
2022-10-30T18:46:46.330Z,99.90
2022-10-30T18:49:14.003Z,99.90
2022-10-30T18:51:41.260Z,99.90
2022-10-30T18:54:14.956Z,99.90
2022-10-30T18:56:42.078Z,99.90
2022-10-30T18:59:09.617Z,99.90
2022-10-30T19:01:39.188Z,99.90
2022-10-30T19:04:10.496Z,99.90
2022-10-30T19:49:37.729Z,99.90
2022-10-30T19:52:05.545Z,99.90
2022-10-30T19:54:34.768Z,99.90
2022-10-30T19:57:05.825Z,99.90
2022-10-30T19:59:33.624Z,99.90
2022-10-30T20:02:03.266Z,99.90
2022-10-30T20:04:30.962Z,99.90
2022-10-30T20:07:02.188Z,99.90
2022-10-30T20:09:35.013Z,99.90
2022-10-30T20:12:02.163Z,99.90
2022-10-30T20:14:29.566Z,99.90
2022-10-30T20:16:56.741Z,99.90
2022-10-30T20:19:32.612Z,99.90
2022-10-30T20:22:00.109Z,99.90
2022-10-30T20:24:27.333Z,99.90
2022-10-30T20:26:56.432Z,99.90
2022-10-30T20:29:25.046Z,99.90
2022-10-30T20:31:52.135Z,99.90
2022-10-30T20:34:21.669Z,99.90
2022-10-30T20:36:49.096Z,99.90
2022-10-30T20:39:18.565Z,99.90
2022-10-30T20:41:45.827Z,99.90
2022-10-30T20:44:13.297Z,99.90
2022-10-30T20:46:40.498Z,99.90
2022-10-30T20:49:17.350Z,99.90
2022-10-30T20:51:48.413Z,99.90
2022-10-30T20:54:18.420Z,99.90
2022-10-30T20:56:48.471Z,99.90
2022-10-30T20:59:15.630Z,99.90
2022-10-30T21:01:43.280Z,99.90
2022-10-30T21:04:10.569Z,99.90
2022-10-30T21:06:37.690Z,99.90
2022-10-30T21:09:09.679Z,99.90
2022-10-30T21:11:36.760Z,99.90
2022-10-30T21:14:04.040Z,99.90
2022-10-30T21:16:31.457Z,99.90
2022-10-30T21:18:58.487Z,99.90
2022-10-30T21:21:26.165Z,99.90
2022-10-30T21:23:56.371Z,99.90
2022-10-30T21:26:25.795Z,99.90
2022-10-30T21:28:53.028Z,99.90
2022-10-30T21:31:20.583Z,99.90
2022-10-30T21:33:47.738Z,99.90
2022-10-30T21:36:17.518Z,99.90
2022-10-30T21:38:45.164Z,99.90
2022-10-30T21:41:14.969Z,99.90
2022-10-30T21:43:43.132Z,99.90
2022-10-30T21:46:13.650Z,99.90
2022-10-30T21:48:42.996Z,99.90
2022-10-30T21:51:21.863Z,99.90
2022-10-30T21:53:49.845Z,99.90
2022-10-30T21:56:20.613Z,99.90
2022-10-30T21:58:48.418Z,99.90
2022-10-30T22:01:22.648Z,99.90
2022-10-30T22:03:50.110Z,99.90
2022-10-30T22:06:21.295Z,99.90
2022-10-30T22:08:53.622Z,99.90
2022-10-30T22:11:23.126Z,99.90
2022-10-30T22:13:58.169Z,99.90
2022-10-30T22:16:27.493Z,99.90
2022-10-30T22:18:57.818Z,99.90
2022-10-30T22:21:25.189Z,99.90
2022-10-30T22:23:53.375Z,99.90
2022-10-30T22:26:22.219Z,99.90
2022-10-30T22:28:53.764Z,99.90
2022-10-30T22:31:22.522Z,99.90
2022-10-30T22:33:50.066Z,99.90
2022-10-30T22:36:24.357Z,99.90
2022-10-30T22:39:03.371Z,99.90
2022-10-30T22:41:34.724Z,99.90
2022-10-30T22:44:12.825Z,99.90
2022-10-30T22:46:40.045Z,99.90
2022-10-30T22:49:10.162Z,99.90
2022-10-30T22:51:40.090Z,99.90
2022-10-30T22:54:10.033Z,99.90
2022-10-30T22:56:40.696Z,99.90
2022-10-30T22:59:13.690Z,99.90
2022-10-30T23:01:43.137Z,99.90
2022-10-30T23:04:11.933Z,99.90
2022-10-30T23:06:39.393Z,99.90
2022-10-30T23:09:14.682Z,99.90
2022-10-30T23:11:42.188Z,99.90
2022-10-30T23:14:11.587Z,99.90
2022-10-30T23:16:44.090Z,99.90
2022-10-30T23:19:11.398Z,99.90
2022-10-30T23:21:41.135Z,99.90
2022-10-30T23:24:10.728Z,99.90
2022-10-30T23:26:40.573Z,99.90
2022-10-30T23:29:10.278Z,99.90
2022-10-30T23:31:40.251Z,99.90
2022-10-30T23:34:12.512Z,99.90
2022-10-30T23:36:42.809Z,99.90
2022-10-30T23:39:17.689Z,99.90
2022-10-30T23:41:45.387Z,99.90
2022-10-30T23:44:14.553Z,99.90
2022-10-30T23:46:44.877Z,99.90
2022-10-30T23:49:12.071Z,99.90
2022-10-30T23:51:39.540Z,99.90
2022-10-30T23:54:06.570Z,99.90
2022-10-30T23:56:36.199Z,99.90
2022-10-30T23:59:06.464Z,99.90
